Time;durP1;ratioP1;P1;durP2;ratioP2;P2;SDS_P1;SDS_P2;PMS_P1;PMS_P2;Temp;Humidity;BMP_temperature;BMP_pressure;BME280_temperature;BME280_humidity;BME280_pressure;Samples;Min_cycle;Max_cycle;Signal;HPM_P1;HPM_P2
2023/05/12 00:02:03;;;;;;;14.83;12.00;;;;;;;;;;5100050;28;20754;-69
2023/05/12 00:04:31;;;;;;;14.90;13.30;;;;;;;;;;5099876;28;20484;-71
2023/05/12 00:06:58;;;;;;;14.03;12.63;;;;;;;;;;5100576;28;20863;-69
2023/05/12 00:09:26;;;;;;;18.23;15.53;;;;;;;;;;5098972;28;20571;-70
2023/05/12 00:11:54;;;;;;;16.37;14.47;;;;;;;;;;5100359;28;20507;-70
2023/05/12 00:14:21;;;;;;;16.43;13.47;;;;;;;;;;5095252;28;20464;-70
2023/05/12 00:16:50;;;;;;;15.77;13.67;;;;;;;;;;5077442;28;20495;-70
2023/05/12 00:19:19;;;;;;;17.57;13.50;;;;;;;;;;5078122;28;20468;-70
2023/05/12 00:21:47;;;;;;;15.63;14.00;;;;;;;;;;5078752;28;20539;-70
2023/05/12 00:24:14;;;;;;;13.80;12.40;;;;;;;;;;5078460;28;20889;-70
2023/05/12 00:26:42;;;;;;;16.03;11.60;;;;;;;;;;5078274;28;20924;-70
2023/05/12 00:29:09;;;;;;;13.37;12.07;;;;;;;;;;5078210;28;20865;-70
2023/05/12 00:31:37;;;;;;;13.60;12.27;;;;;;;;;;5092414;28;20930;-70
2023/05/12 00:34:05;;;;;;;14.10;12.60;;;;;;;;;;5100005;28;20982;-70
2023/05/12 00:36:34;;;;;;;12.70;11.50;;;;;;;;;;5101639;28;20507;-69
2023/05/12 00:39:03;;;;;;;11.80;10.60;;;;;;;;;;5120655;28;20881;-70
2023/05/12 00:41:31;;;;;;;11.77;10.67;;;;;;;;;;5099728;28;20537;-69
2023/05/12 00:43:59;;;;;;;11.03;9.93;;;;;;;;;;5107982;28;20444;-70
2023/05/12 00:46:27;;;;;;;11.90;10.10;;;;;;;;;;5099843;28;20479;-69
2023/05/12 00:48:55;;;;;;;11.20;10.10;;;;;;;;;;5104879;28;20455;-70
2023/05/12 00:51:22;;;;;;;12.90;10.40;;;;;;;;;;5112221;28;20487;-70
2023/05/12 00:53:52;;;;;;;11.63;9.93;;;;;;;;;;5119015;28;20546;-70
2023/05/12 00:56:20;;;;;;;10.60;9.50;;;;;;;;;;5119353;28;20547;-70
2023/05/12 00:58:48;;;;;;;10.80;9.07;;;;;;;;;;5106053;28;20458;-69
2023/05/12 01:01:15;;;;;;;11.10;9.80;;;;;;;;;;5098439;28;20839;-70
2023/05/12 01:03:43;;;;;;;9.30;8.40;;;;;;;;;;5106677;28;20875;-70
2023/05/12 01:06:12;;;;;;;9.20;8.17;;;;;;;;;;5090474;28;20463;-70
2023/05/12 01:08:43;;;;;;;8.53;7.73;;;;;;;;;;5099543;28;20856;-70
2023/05/12 01:11:12;;;;;;;8.57;7.00;;;;;;;;;;5084995;28;20805;-70
2023/05/12 01:13:41;;;;;;;9.67;7.97;;;;;;;;;;5078637;28;20449;-70
2023/05/12 01:16:10;;;;;;;7.83;7.03;;;;;;;;;;5079197;28;20525;-70
2023/05/12 01:18:38;;;;;;;10.57;7.03;;;;;;;;;;5078846;28;20457;-70
2023/05/12 01:21:07;;;;;;;9.30;6.57;;;;;;;;;;5078900;28;20453;-70
2023/05/12 01:23:37;;;;;;;9.60;7.20;;;;;;;;;;5091986;28;20460;-70
2023/05/12 01:26:07;;;;;;;8.73;6.90;;;;;;;;;;5110319;28;20459;-70
2023/05/12 01:28:36;;;;;;;9.63;7.23;;;;;;;;;;5115451;28;20557;-70
2023/05/12 01:31:04;;;;;;;15.43;7.07;;;;;;;;;;5097554;28;20484;-70
2023/05/12 01:33:32;;;;;;;8.20;7.23;;;;;;;;;;5096554;28;20452;-70
2023/05/12 01:36:00;;;;;;;7.20;6.50;;;;;;;;;;5097124;28;20456;-70
2023/05/12 01:38:27;;;;;;;7.50;6.10;;;;;;;;;;5096160;28;20464;-70
2023/05/12 01:40:55;;;;;;;7.30;6.60;;;;;;;;;;5100586;28;20440;-70
2023/05/12 01:43:24;;;;;;;7.83;7.00;;;;;;;;;;5108459;28;20539;-69
2023/05/12 01:45:51;;;;;;;8.03;5.87;;;;;;;;;;5084120;28;20449;-69
2023/05/12 01:48:19;;;;;;;8.50;6.80;;;;;;;;;;5077053;28;20899;-69
2023/05/12 01:50:47;;;;;;;7.77;6.37;;;;;;;;;;5093221;28;20767;-71
2023/05/12 01:53:15;;;;;;;7.23;6.50;;;;;;;;;;5083102;28;20452;-71
2023/05/12 01:55:43;;;;;;;8.63;6.40;;;;;;;;;;5098105;28;21010;-71
2023/05/12 01:58:11;;;;;;;6.50;5.83;;;;;;;;;;5098219;28;20452;-70
2023/05/12 02:00:40;;;;;;;6.70;5.97;;;;;;;;;;5093969;28;20497;-69
2023/05/12 02:03:07;;;;;;;7.00;6.30;;;;;;;;;;5087986;28;20465;-70
2023/05/12 02:05:35;;;;;;;6.50;5.20;;;;;;;;;;5077683;28;20943;-69
2023/05/12 02:08:03;;;;;;;7.90;6.67;;;;;;;;;;5078282;28;20864;-70
2023/05/12 02:10:31;;;;;;;6.23;5.63;;;;;;;;;;5077571;28;20448;-70
2023/05/12 02:12:59;;;;;;;5.93;5.33;;;;;;;;;;5085687;28;20508;-70
2023/05/12 02:15:26;;;;;;;6.53;5.60;;;;;;;;;;5099192;28;20546;-70
2023/05/12 02:17:57;;;;;;;5.93;5.33;;;;;;;;;;5098284;28;20464;-70
2023/05/12 02:20:24;;;;;;;5.53;4.43;;;;;;;;;;5099813;28;20473;-70
2023/05/12 02:22:52;;;;;;;5.90;5.10;;;;;;;;;;5088001;28;20468;-69
2023/05/12 02:25:20;;;;;;;5.47;4.77;;;;;;;;;;5100491;28;20879;-69
2023/05/12 02:27:47;;;;;;;6.43;4.80;;;;;;;;;;5110519;28;20862;-70
2023/05/12 02:30:14;;;;;;;7.10;4.80;;;;;;;;;;5118752;28;20553;-70
2023/05/12 02:32:42;;;;;;;5.70;4.73;;;;;;;;;;5103933;28;20483;-69
2023/05/12 02:35:14;;;;;;;6.60;4.87;;;;;;;;;;5097381;28;20428;-69
2023/05/12 02:37:42;;;;;;;4.90;4.40;;;;;;;;;;5096874;28;20448;-70
2023/05/12 02:40:10;;;;;;;4.80;4.30;;;;;;;;;;5100889;28;20459;-70
2023/05/12 02:42:39;;;;;;;7.83;5.37;;;;;;;;;;5110153;28;20512;-69
2023/05/12 02:45:07;;;;;;;7.37;5.30;;;;;;;;;;5101837;28;20796;-70
2023/05/12 02:47:35;;;;;;;5.00;4.50;;;;;;;;;;5088535;28;20523;-70
2023/05/12 02:50:09;;;;;;;8.10;4.47;;;;;;;;;;5093776;28;20801;-70
2023/05/12 02:52:38;;;;;;;6.87;4.20;;;;;;;;;;5104942;28;20467;-69
2023/05/12 02:55:05;;;;;;;5.43;4.80;;;;;;;;;;5122661;28;20474;-70
2023/05/12 02:57:33;;;;;;;5.27;4.23;;;;;;;;;;5122009;28;20494;-70
2023/05/12 03:00:13;;;;;;;4.57;3.80;;;;;;;;;;5116487;28;20520;-70
2023/05/12 03:02:41;;;;;;;5.30;4.50;;;;;;;;;;5080449;28;20460;-69
2023/05/12 03:05:09;;;;;;;5.40;4.90;;;;;;;;;;5081075;28;20464;-70
2023/05/12 03:07:38;;;;;;;7.60;5.27;;;;;;;;;;5094836;28;20444;-69
2023/05/12 03:10:11;;;;;;;5.27;4.67;;;;;;;;;;5120400;28;20455;-70
2023/05/12 03:12:42;;;;;;;6.80;4.83;;;;;;;;;;5120031;28;20573;-70
2023/05/12 03:15:10;;;;;;;5.03;4.53;;;;;;;;;;5102073;28;20491;-70
2023/05/12 03:17:37;;;;;;;8.77;4.50;;;;;;;;;;5097695;28;20556;-70
2023/05/12 03:20:11;;;;;;;5.83;4.63;;;;;;;;;;5097638;28;20921;-69
2023/05/12 03:22:39;;;;;;;5.37;4.87;;;;;;;;;;5096771;28;20440;-69
2023/05/12 03:25:09;;;;;;;6.57;4.67;;;;;;;;;;5097645;28;20488;-71
2023/05/12 03:27:36;;;;;;;7.90;5.70;;;;;;;;;;5094629;28;20460;-70
2023/05/12 03:30:12;;;;;;;9.80;5.53;;;;;;;;;;5097132;28;20468;-71
2023/05/12 03:32:40;;;;;;;6.07;5.47;;;;;;;;;;5096451;28;20497;-70
2023/05/12 03:35:08;;;;;;;5.17;4.60;;;;;;;;;;5097472;28;20452;-70
2023/05/12 03:37:36;;;;;;;9.77;4.67;;;;;;;;;;5096665;28;20471;-70
2023/05/12 03:40:11;;;;;;;5.67;5.07;;;;;;;;;;5097887;28;20501;-70
2023/05/12 03:42:38;;;;;;;5.40;4.60;;;;;;;;;;5097337;28;20456;-71
2023/05/12 03:45:06;;;;;;;5.07;4.33;;;;;;;;;;5097043;28;20447;-68
2023/05/12 03:47:34;;;;;;;5.40;4.90;;;;;;;;;;5110550;28;20595;-68
2023/05/12 03:50:07;;;;;;;5.40;4.57;;;;;;;;;;5098886;28;20448;-70
2023/05/12 03:52:37;;;;;;;6.93;5.47;;;;;;;;;;5108110;28;20509;-70
2023/05/12 03:55:05;;;;;;;5.37;4.87;;;;;;;;;;5112823;28;20485;-70
2023/05/12 03:57:35;;;;;;;5.67;4.93;;;;;;;;;;5098826;28;20532;-70
2023/05/12 04:00:08;;;;;;;6.47;4.83;;;;;;;;;;5098818;28;20864;-71
2023/05/12 04:02:36;;;;;;;13.77;5.57;;;;;;;;;;5115149;28;20467;-71
2023/05/12 04:05:07;;;;;;;7.40;4.67;;;;;;;;;;5120035;28;20455;-70
2023/05/12 04:07:35;;;;;;;6.07;4.80;;;;;;;;;;5112504;28;20454;-71
2023/05/12 04:10:13;;;;;;;7.13;4.37;;;;;;;;;;5096216;28;20491;-71
2023/05/12 04:12:42;;;;;;;8.80;5.23;;;;;;;;;;5095481;28;20498;-69
2023/05/12 04:15:10;;;;;;;9.13;5.10;;;;;;;;;;5095452;28;21086;-69
2023/05/12 04:17:37;;;;;;;8.00;5.63;;;;;;;;;;5096624;28;20518;-69
2023/05/12 04:20:16;;;;;;;7.20;6.50;;;;;;;;;;5096905;28;20856;-69
2023/05/12 04:22:50;;;;;;;9.63;5.60;;;;;;;;;;5100238;28;20902;-70
2023/05/12 04:25:18;;;;;;;5.83;5.10;;;;;;;;;;5078379;28;20469;-69
2023/05/12 04:27:47;;;;;;;6.03;5.43;;;;;;;;;;5093702;28;20478;-69
2023/05/12 04:30:15;;;;;;;7.03;5.83;;;;;;;;;;5100585;28;20464;-70
2023/05/12 04:32:42;;;;;;;7.50;6.17;;;;;;;;;;5105028;28;20475;-69
2023/05/12 04:35:10;;;;;;;7.60;5.47;;;;;;;;;;5120707;28;20459;-69
2023/05/12 04:37:40;;;;;;;5.87;4.73;;;;;;;;;;5105098;28;20464;-69
2023/05/12 04:40:13;;;;;;;6.77;5.27;;;;;;;;;;5098108;28;20452;-69
2023/05/12 04:42:41;;;;;;;5.90;5.27;;;;;;;;;;5098809;28;20458;-69
2023/05/12 04:45:12;;;;;;;7.20;4.93;;;;;;;;;;5111762;28;20464;-69
2023/05/12 04:47:42;;;;;;;5.87;5.27;;;;;;;;;;5116698;28;20447;-69
2023/05/12 04:50:13;;;;;;;10.83;5.23;;;;;;;;;;5095771;28;20482;-69
2023/05/12 04:52:40;;;;;;;14.10;8.27;;;;;;;;;;5097683;28;20494;-69
2023/05/12 04:55:19;;;;;;;6.47;5.90;;;;;;;;;;5097520;28;20444;-70
2023/05/12 04:57:49;;;;;;;6.67;5.50;;;;;;;;;;5096833;28;20531;-69
2023/05/12 05:00:19;;;;;;;6.10;4.70;;;;;;;;;;5096336;28;20820;-69
2023/05/12 05:02:46;;;;;;;7.27;5.37;;;;;;;;;;5094170;28;20550;-68
2023/05/12 05:05:14;;;;;;;9.33;5.30;;;;;;;;;;5099105;28;20764;-69
2023/05/12 05:07:44;;;;;;;9.40;5.80;;;;;;;;;;5117268;28;20734;-70
2023/05/12 05:10:15;;;;;;;7.23;5.80;;;;;;;;;;5113377;28;20448;-70
2023/05/12 05:12:43;;;;;;;6.93;5.37;;;;;;;;;;5096942;28;20505;-71
2023/05/12 05:15:11;;;;;;;8.00;6.87;;;;;;;;;;5107058;28;20452;-70
2023/05/12 05:17:41;;;;;;;10.20;6.07;;;;;;;;;;5096991;28;20528;-70
2023/05/12 05:20:12;;;;;;;6.40;5.80;;;;;;;;;;5116343;28;20494;-70
2023/05/12 05:22:40;;;;;;;7.20;5.27;;;;;;;;;;5114372;28;20908;-69
2023/05/12 05:25:08;;;;;;;6.00;4.70;;;;;;;;;;5119233;27;20473;-69
2023/05/12 05:27:37;;;;;;;5.93;5.33;;;;;;;;;;5113438;28;20443;-69
2023/05/12 05:30:11;;;;;;;6.63;5.83;;;;;;;;;;5126350;27;20533;-69
2023/05/12 05:32:43;;;;;;;7.53;6.20;;;;;;;;;;5129451;27;20929;-69
2023/05/12 05:35:11;;;;;;;9.27;5.50;;;;;;;;;;5129342;27;20447;-69
2023/05/12 05:37:39;;;;;;;12.33;7.47;;;;;;;;;;5130305;27;21038;-69
2023/05/12 05:40:15;;;;;;;6.03;5.40;;;;;;;;;;5129202;27;20968;-69
2023/05/12 05:42:43;;;;;;;9.87;6.07;;;;;;;;;;5129995;27;20442;-69
2023/05/12 05:45:11;;;;;;;14.10;6.60;;;;;;;;;;5120827;27;20891;-71
2023/05/12 05:47:40;;;;;;;7.83;5.03;;;;;;;;;;5090061;28;20944;-70
2023/05/12 05:50:09;;;;;;;5.57;4.87;;;;;;;;;;5089543;28;20470;-70
2023/05/12 05:52:36;;;;;;;11.37;5.67;;;;;;;;;;5087873;28;20517;-69
2023/05/12 05:55:04;;;;;;;5.67;5.10;;;;;;;;;;5089789;28;20983;-70
2023/05/12 05:57:32;;;;;;;10.30;5.97;;;;;;;;;;5088762;28;20586;-70
2023/05/12 06:00:11;;;;;;;6.70;5.30;;;;;;;;;;5087103;28;20859;-70
2023/05/12 06:02:44;;;;;;;6.47;5.10;;;;;;;;;;5094003;28;20532;-71
2023/05/12 06:05:18;;;;;;;6.67;5.10;;;;;;;;;;5106204;28;20562;-71
2023/05/12 06:07:53;;;;;;;11.30;5.47;;;;;;;;;;5106787;28;20523;-70
2023/05/12 06:10:21;;;;;;;10.10;5.53;;;;;;;;;;5111229;28;20495;-70
2023/05/12 06:12:49;;;;;;;7.07;5.57;;;;;;;;;;5109724;28;20487;-70
2023/05/12 06:15:21;;;;;;;7.23;5.00;;;;;;;;;;5112272;28;20457;-71
2023/05/12 06:17:50;;;;;;;6.10;5.30;;;;;;;;;;5113300;28;20506;-70
2023/05/12 06:20:19;;;;;;;5.63;4.57;;;;;;;;;;5114847;28;20455;-70
2023/05/12 06:22:47;;;;;;;5.57;4.90;;;;;;;;;;5114182;28;20528;-71
2023/05/12 06:25:23;;;;;;;5.30;4.70;;;;;;;;;;5106919;28;20471;-70
2023/05/12 06:27:59;;;;;;;5.43;4.70;;;;;;;;;;5073381;28;20437;-72
2023/05/12 06:30:30;;;;;;;5.63;4.90;;;;;;;;;;5076340;28;20436;-70
2023/05/12 06:33:01;;;;;;;5.50;4.73;;;;;;;;;;5075303;28;20485;-69
2023/05/12 06:35:32;;;;;;;5.13;4.60;;;;;;;;;;5094558;28;20557;-70
2023/05/12 06:38:03;;;;;;;5.43;4.70;;;;;;;;;;5096429;28;20533;-70
2023/05/12 06:40:40;;;;;;;11.50;10.30;;;;;;;;;;5096397;28;20452;-70
2023/05/12 06:43:07;;;;;;;6.97;4.77;;;;;;;;;;5096220;28;20455;-69
2023/05/12 06:45:36;;;;;;;7.87;6.47;;;;;;;;;;5093651;28;20455;-69
2023/05/12 06:48:12;;;;;;;5.40;4.90;;;;;;;;;;5093798;28;20460;-70
2023/05/12 06:50:43;;;;;;;5.17;4.67;;;;;;;;;;5088895;28;20555;-69
2023/05/12 06:53:15;;;;;;;5.83;4.13;;;;;;;;;;5074051;28;20486;-70
2023/05/12 06:55:45;;;;;;;9.07;4.90;;;;;;;;;;5073858;28;20456;-71
2023/05/12 06:58:14;;;;;;;7.53;4.50;;;;;;;;;;5072588;28;20461;-70
2023/05/12 07:01:01;;;;;;;6.07;5.10;;;;;;;;;;5084812;28;20542;-70
2023/05/12 07:03:35;;;;;;;5.70;4.60;;;;;;;;;;5074816;28;20445;-70
2023/05/12 07:06:04;;;;;;;11.30;4.30;;;;;;;;;;5066299;28;20458;-70
2023/05/12 07:08:32;;;;;;;5.73;4.43;;;;;;;;;;5075558;28;20457;-70
2023/05/12 07:11:00;;;;;;;6.43;4.30;;;;;;;;;;5075774;28;20476;-70
2023/05/12 07:13:28;;;;;;;4.93;3.80;;;;;;;;;;5073332;28;20492;-70
2023/05/12 07:15:55;;;;;;;5.47;4.40;;;;;;;;;;5073763;28;20509;-70
2023/05/12 07:18:23;;;;;;;5.70;4.40;;;;;;;;;;5073513;28;20453;-71
2023/05/12 07:20:53;;;;;;;7.07;5.07;;;;;;;;;;5075199;28;20480;-71
2023/05/12 07:23:21;;;;;;;6.10;4.13;;;;;;;;;;5072882;28;20554;-70
2023/05/12 07:25:48;;;;;;;6.57;4.53;;;;;;;;;;5080071;28;20556;-70
2023/05/12 07:28:16;;;;;;;7.93;5.40;;;;;;;;;;5075457;28;20559;-70
2023/05/12 07:30:48;;;;;;;5.93;5.00;;;;;;;;;;5075952;28;20441;-71
2023/05/12 07:33:15;;;;;;;15.53;4.60;;;;;;;;;;5073991;28;20515;-70
2023/05/12 07:35:45;;;;;;;10.30;4.80;;;;;;;;;;5086611;28;20567;-70
2023/05/12 07:38:23;;;;;;;7.23;4.53;;;;;;;;;;5094032;28;20471;-70
2023/05/12 07:41:04;;;;;;;7.20;4.93;;;;;;;;;;5091890;28;20467;-71
2023/05/12 07:43:53;;;;;;;5.07;4.00;;;;;;;;;;5090945;28;20951;-71
2023/05/12 07:46:22;;;;;;;11.27;5.60;;;;;;;;;;5071476;28;20489;-70
2023/05/12 07:48:51;;;;;;;9.33;4.60;;;;;;;;;;5066317;28;20453;-71
2023/05/12 07:51:22;;;;;;;12.40;4.87;;;;;;;;;;5072774;28;20618;-71
2023/05/12 07:53:57;;;;;;;10.93;5.13;;;;;;;;;;5092249;28;20499;-71
2023/05/12 07:56:25;;;;;;;7.80;4.10;;;;;;;;;;5093486;28;20444;-70
2023/05/12 07:58:58;;;;;;;7.10;4.13;;;;;;;;;;5091185;28;20471;-71
2023/05/12 08:01:31;;;;;;;5.93;4.40;;;;;;;;;;5077519;28;20520;-71
2023/05/12 08:04:13;;;;;;;9.93;4.63;;;;;;;;;;5088776;28;20453;-71
2023/05/12 08:06:47;;;;;;;6.60;5.00;;;;;;;;;;5087515;28;20484;-69
2023/05/12 08:09:26;;;;;;;7.60;4.40;;;;;;;;;;5095768;28;20440;-69
2023/05/12 08:11:58;;;;;;;5.43;4.50;;;;;;;;;;5096321;28;20456;-69
2023/05/12 08:14:38;;;;;;;6.23;4.67;;;;;;;;;;5092353;28;20567;-69
2023/05/12 08:23:03;;;;;;;10.67;6.00;;;;;;;;;;5089249;28;20447;-70
2023/05/12 08:25:48;;;;;;;6.03;4.83;;;;;;;;;;5089739;28;21069;-70
2023/05/12 08:28:16;;;;;;;5.70;4.80;;;;;;;;;;5076295;28;20618;-71
2023/05/12 08:42:31;;;;;;;6.70;5.20;;;;;;;;;;5083137;28;20182;-71
2023/05/12 08:45:14;;;;;;;8.10;4.40;;;;;;;;;;5081487;28;20564;-72
2023/05/12 08:47:46;;;;;;;5.07;4.00;;;;;;;;;;5080601;28;20457;-71
2023/05/12 08:50:18;;;;;;;4.73;4.03;;;;;;;;;;5076692;28;20480;-73
2023/05/12 08:52:46;;;;;;;5.00;3.77;;;;;;;;;;5094589;28;20515;-71
2023/05/12 08:55:15;;;;;;;5.13;4.63;;;;;;;;;;5081318;28;20449;-72
2023/05/12 08:57:54;;;;;;;5.57;4.00;;;;;;;;;;5082115;28;20459;-73
2023/05/12 09:00:33;;;;;;;11.33;3.53;;;;;;;;;;5082574;28;20464;-71
2023/05/12 09:03:14;;;;;;;6.80;4.50;;;;;;;;;;5089856;28;20464;-72
2023/05/12 09:05:53;;;;;;;4.67;3.20;;;;;;;;;;5091476;28;20470;-71
2023/05/12 09:08:25;;;;;;;11.70;4.00;;;;;;;;;;5090198;28;20452;-71
2023/05/12 09:11:07;;;;;;;6.60;3.70;;;;;;;;;;5077445;28;20460;-73
2023/05/12 09:16:41;;;;;;;9.63;4.40;;;;;;;;;;5085667;28;20451;-71
2023/05/12 09:19:09;;;;;;;6.73;4.53;;;;;;;;;;5091180;28;20460;-71
2023/05/12 09:21:45;;;;;;;4.70;3.23;;;;;;;;;;5076880;28;20892;-71
2023/05/12 09:24:13;;;;;;;7.00;3.40;;;;;;;;;;5080367;28;20952;-71
2023/05/12 09:27:03;;;;;;;6.37;3.73;;;;;;;;;;5091680;28;20721;-72
2023/05/12 09:32:38;;;;;;;5.80;3.13;;;;;;;;;;5070805;28;20567;-72
2023/05/12 09:35:15;;;;;;;8.30;4.77;;;;;;;;;;5075570;28;20446;-72
2023/05/12 09:37:43;;;;;;;5.40;3.77;;;;;;;;;;5070509;28;20904;-71
2023/05/12 09:40:21;;;;;;;7.53;3.37;;;;;;;;;;5092510;28;20542;-74
2023/05/12 09:42:57;;;;;;;6.10;3.60;;;;;;;;;;5077569;28;20514;-73
2023/05/12 09:45:30;;;;;;;7.77;4.00;;;;;;;;;;5069979;28;20445;-72
2023/05/12 09:48:11;;;;;;;5.77;3.87;;;;;;;;;;5089067;28;20513;-72
2023/05/12 09:50:46;;;;;;;5.10;3.80;;;;;;;;;;5087597;28;20451;-71
2023/05/12 09:53:16;;;;;;;8.80;3.50;;;;;;;;;;5079311;28;20477;-72
2023/05/12 09:55:45;;;;;;;7.70;3.47;;;;;;;;;;5074423;28;20549;-71
2023/05/12 09:58:25;;;;;;;4.77;3.80;;;;;;;;;;5068812;28;20455;-71
2023/05/12 10:00:55;;;;;;;7.90;3.40;;;;;;;;;;5068633;28;20553;-71
2023/05/12 10:03:25;;;;;;;4.30;3.17;;;;;;;;;;5068067;28;20456;-71
2023/05/12 10:06:05;;;;;;;6.50;3.40;;;;;;;;;;5076801;28;20866;-72
2023/05/12 10:08:44;;;;;;;4.70;3.00;;;;;;;;;;5097509;28;20494;-70
2023/05/12 10:11:12;;;;;;;4.03;2.90;;;;;;;;;;5082573;28;20845;-70
2023/05/12 10:13:44;;;;;;;7.60;3.83;;;;;;;;;;5083671;28;20486;-71
2023/05/12 10:16:17;;;;;;;4.37;3.40;;;;;;;;;;5087945;28;21103;-70
2023/05/12 10:18:45;;;;;;;6.50;3.63;;;;;;;;;;5079122;28;20575;-70
2023/05/12 10:21:17;;;;;;;4.63;2.90;;;;;;;;;;5084247;28;20471;-72
2023/05/12 10:23:48;;;;;;;6.27;3.10;;;;;;;;;;5074879;28;20455;-71
2023/05/12 10:26:16;;;;;;;6.70;3.33;;;;;;;;;;5068449;28;20457;-72
2023/05/12 10:28:45;;;;;;;5.20;3.33;;;;;;;;;;5069080;28;20465;-70
2023/05/12 10:31:14;;;;;;;4.70;3.00;;;;;;;;;;5076323;28;20459;-72
2023/05/12 10:33:42;;;;;;;8.07;3.80;;;;;;;;;;5105526;28;20479;-71
2023/05/12 10:36:18;;;;;;;8.20;2.97;;;;;;;;;;5076150;28;20449;-70
2023/05/12 10:38:51;;;;;;;5.63;3.53;;;;;;;;;;5074590;28;21007;-71
2023/05/12 10:41:35;;;;;;;3.77;3.10;;;;;;;;;;5078744;28;20461;-71
2023/05/12 10:44:06;;;;;;;6.20;4.40;;;;;;;;;;5071734;28;20494;-72
2023/05/12 10:46:36;;;;;;;6.50;3.50;;;;;;;;;;5074537;28;20534;-70
2023/05/12 10:49:04;;;;;;;6.27;4.00;;;;;;;;;;5077191;28;20537;-70
2023/05/12 10:51:34;;;;;;;7.17;3.70;;;;;;;;;;5080923;28;20549;-70
2023/05/12 10:54:04;;;;;;;3.90;2.93;;;;;;;;;;5070240;28;20489;-70
2023/05/12 10:56:33;;;;;;;5.63;2.50;;;;;;;;;;5071504;28;20528;-71
2023/05/12 10:59:25;;;;;;;4.03;2.77;;;;;;;;;;5071891;28;20456;-71
2023/05/12 11:02:09;;;;;;;5.70;2.80;;;;;;;;;;5071688;28;20459;-71
2023/05/12 11:04:41;;;;;;;4.10;2.60;;;;;;;;;;5080808;28;20463;-71
2023/05/12 11:07:09;;;;;;;3.90;2.57;;;;;;;;;;5081490;28;20463;-72
2023/05/12 11:12:36;;;;;;;4.43;2.90;;;;;;;;;;5075471;28;20894;-72
2023/05/12 11:15:06;;;;;;;6.37;3.10;;;;;;;;;;5094482;28;20484;-72
2023/05/12 11:17:44;;;;;;;4.00;3.00;;;;;;;;;;5088613;28;20559;-72
2023/05/12 11:20:22;;;;;;;7.30;2.90;;;;;;;;;;5074843;28;20437;-70
2023/05/12 11:22:51;;;;;;;3.70;2.60;;;;;;;;;;5080308;28;20597;-71
2023/05/12 11:25:19;;;;;;;8.80;2.23;;;;;;;;;;5091833;28;20526;-70
2023/05/12 11:27:48;;;;;;;5.20;2.60;;;;;;;;;;5089705;28;20460;-70
2023/05/12 11:30:19;;;;;;;6.53;2.80;;;;;;;;;;5083137;28;20538;-71
2023/05/12 11:33:02;;;;;;;4.97;2.83;;;;;;;;;;5093393;28;20981;-72
2023/05/12 11:35:48;;;;;;;4.10;2.57;;;;;;;;;;5084471;28;20483;-70
2023/05/12 11:38:17;;;;;;;4.40;3.13;;;;;;;;;;5087872;28;20760;-70
2023/05/12 11:40:59;;;;;;;3.30;2.57;;;;;;;;;;5089409;28;20912;-70
2023/05/12 11:43:30;;;;;;;3.23;2.50;;;;;;;;;;5077092;28;20497;-70
2023/05/12 11:46:12;;;;;;;5.03;2.27;;;;;;;;;;5073152;28;20461;-70
2023/05/12 11:48:41;;;;;;;5.83;2.73;;;;;;;;;;5069616;28;20453;-71
2023/05/12 11:51:10;;;;;;;5.10;2.73;;;;;;;;;;5073199;28;20531;-71
2023/05/12 11:53:44;;;;;;;4.33;2.30;;;;;;;;;;5071713;28;20445;-71
2023/05/12 11:56:19;;;;;;;5.23;2.47;;;;;;;;;;5071601;28;21107;-70
2023/05/12 11:58:53;;;;;;;4.13;2.63;;;;;;;;;;5072452;28;20518;-70
2023/05/12 12:01:25;;;;;;;3.20;2.47;;;;;;;;;;5067002;28;20472;-71
2023/05/12 12:03:56;;;;;;;5.13;3.60;;;;;;;;;;5074169;28;20460;-71
2023/05/12 12:06:27;;;;;;;5.80;3.13;;;;;;;;;;5067897;28;20864;-71
2023/05/12 12:08:55;;;;;;;4.60;2.47;;;;;;;;;;5094098;28;20472;-72
2023/05/12 12:11:27;;;;;;;6.90;2.50;;;;;;;;;;5092874;28;20814;-71
2023/05/12 12:13:59;;;;;;;5.00;2.70;;;;;;;;;;5073758;28;21008;-71
2023/05/12 12:16:35;;;;;;;3.13;2.57;;;;;;;;;;5089295;28;20511;-71
2023/05/12 12:19:25;;;;;;;3.30;2.10;;;;;;;;;;5084325;28;20463;-70
2023/05/12 12:21:55;;;;;;;7.07;2.77;;;;;;;;;;5087929;28;20461;-72
2023/05/12 12:24:22;;;;;;;4.57;2.50;;;;;;;;;;5071192;28;20453;-71
2023/05/12 12:26:51;;;;;;;4.13;2.40;;;;;;;;;;5076108;28;20518;-71
2023/05/12 12:29:28;;;;;;;3.77;3.07;;;;;;;;;;5086024;28;20475;-69
2023/05/12 12:31:57;;;;;;;4.33;2.70;;;;;;;;;;5073570;28;20444;-71
2023/05/12 12:34:25;;;;;;;5.90;2.63;;;;;;;;;;5075642;28;21202;-72
2023/05/12 12:37:08;;;;;;;5.10;3.00;;;;;;;;;;5073982;28;20575;-71
2023/05/12 12:39:46;;;;;;;4.80;2.33;;;;;;;;;;5086773;28;20467;-71
2023/05/12 12:42:20;;;;;;;3.90;2.87;;;;;;;;;;5081097;28;20485;-70
2023/05/12 12:44:49;;;;;;;6.00;3.20;;;;;;;;;;5073746;28;20500;-71
2023/05/12 12:47:26;;;;;;;6.27;3.47;;;;;;;;;;5085994;28;20528;-71
2023/05/12 12:49:57;;;;;;;4.30;2.80;;;;;;;;;;5112175;28;20488;-70
2023/05/12 12:52:27;;;;;;;4.70;3.17;;;;;;;;;;5111956;28;20448;-72
2023/05/12 12:54:55;;;;;;;5.17;2.40;;;;;;;;;;5109945;28;20984;-70
2023/05/12 12:57:26;;;;;;;4.30;2.40;;;;;;;;;;5091795;28;20519;-71
2023/05/12 13:00:36;;;;;;;4.37;2.63;;;;;;;;;;5084031;28;20476;-71
2023/05/12 13:03:04;;;;;;;3.97;2.80;;;;;;;;;;5087261;28;20452;-71
2023/05/12 13:08:49;;;;;;;5.00;2.90;;;;;;;;;;5069099;28;20475;-70
2023/05/12 13:14:33;;;;;;;3.13;2.20;;;;;;;;;;5073285;28;20484;-70
2023/05/12 13:17:04;;;;;;;5.47;3.20;;;;;;;;;;5072996;28;20751;-70
2023/05/12 13:19:31;;;;;;;4.00;3.00;;;;;;;;;;5073236;28;20445;-70
2023/05/12 13:21:59;;;;;;;5.40;2.80;;;;;;;;;;5073081;28;20457;-71
2023/05/12 13:24:28;;;;;;;5.73;2.90;;;;;;;;;;5081300;28;20828;-71
2023/05/12 13:26:57;;;;;;;11.40;10.10;;;;;;;;;;5079155;28;20457;-72
2023/05/12 13:29:25;;;;;;;7.23;2.50;;;;;;;;;;5082213;28;20491;-71
2023/05/12 13:31:54;;;;;;;7.57;2.93;;;;;;;;;;5083566;28;20539;-71
2023/05/12 13:34:28;;;;;;;9.20;4.70;;;;;;;;;;5093840;28;20491;-71
2023/05/12 13:36:56;;;;;;;3.93;2.70;;;;;;;;;;5085698;28;20453;-72
2023/05/12 13:39:24;;;;;;;7.20;4.53;;;;;;;;;;5075513;28;20461;-71
2023/05/12 13:41:55;;;;;;;6.80;2.60;;;;;;;;;;5093083;28;20455;-69
2023/05/12 13:44:24;;;;;;;3.67;2.60;;;;;;;;;;5073805;28;20433;-71
2023/05/12 13:47:06;;;;;;;5.47;2.53;;;;;;;;;;5092933;28;20456;-71
2023/05/12 13:49:44;;;;;;;6.47;2.57;;;;;;;;;;5073591;28;20491;-71
2023/05/12 13:52:22;;;;;;;3.07;2.33;;;;;;;;;;5087983;28;20465;-72
2023/05/12 13:54:51;;;;;;;6.53;2.70;;;;;;;;;;5070535;28;20481;-72
2023/05/12 13:57:27;;;;;;;3.43;2.43;;;;;;;;;;5071168;28;20542;-71
2023/05/12 13:59:58;;;;;;;5.50;3.03;;;;;;;;;;5091697;28;20482;-71
2023/05/12 14:02:26;;;;;;;8.37;3.07;;;;;;;;;;5091744;28;20456;-70
2023/05/12 14:05:28;;;;;;;3.43;2.70;;;;;;;;;;5093428;28;20873;-71
2023/05/12 14:08:00;;;;;;;4.30;2.33;;;;;;;;;;5089455;28;21107;-70
2023/05/12 14:10:36;;;;;;;3.70;2.50;;;;;;;;;;5082515;28;20487;-71
2023/05/12 14:13:31;;;;;;;13.07;3.20;;;;;;;;;;5091675;28;20506;-72
2023/05/12 14:16:07;;;;;;;4.97;3.20;;;;;;;;;;5091427;28;20586;-72
2023/05/12 14:18:39;;;;;;;3.03;2.20;;;;;;;;;;5093244;28;21093;-71
2023/05/12 14:21:18;;;;;;;9.97;3.07;;;;;;;;;;5092953;28;20475;-71
2023/05/12 14:23:47;;;;;;;7.27;3.37;;;;;;;;;;5094057;28;20956;-71
2023/05/12 14:26:15;;;;;;;5.43;3.50;;;;;;;;;;5092433;28;20452;-69
2023/05/12 14:28:45;;;;;;;7.37;2.47;;;;;;;;;;5092596;28;20699;-70
2023/05/12 14:31:14;;;;;;;3.60;2.77;;;;;;;;;;5093711;28;20543;-71
2023/05/12 14:33:42;;;;;;;4.00;2.33;;;;;;;;;;5076180;28;20942;-70
2023/05/12 14:36:13;;;;;;;3.23;2.47;;;;;;;;;;5075700;28;20850;-70
2023/05/12 14:38:43;;;;;;;3.47;2.47;;;;;;;;;;5074048;28;20530;-71
2023/05/12 14:41:11;;;;;;;4.23;2.70;;;;;;;;;;5073994;28;20530;-71
2023/05/12 14:43:41;;;;;;;9.50;6.37;;;;;;;;;;5074215;28;20487;-71
2023/05/12 14:46:12;;;;;;;7.03;4.97;;;;;;;;;;5075166;28;20445;-71
2023/05/12 14:48:40;;;;;;;7.87;4.80;;;;;;;;;;5076787;28;20456;-69
2023/05/12 14:51:09;;;;;;;5.07;3.63;;;;;;;;;;5076043;28;20480;-70
2023/05/12 14:53:40;;;;;;;3.43;2.57;;;;;;;;;;5074927;28;20547;-70
2023/05/12 14:56:09;;;;;;;5.87;3.37;;;;;;;;;;5076317;28;20500;-70
2023/05/12 14:58:40;;;;;;;5.30;2.50;;;;;;;;;;5075322;28;20461;-73
2023/05/12 15:01:11;;;;;;;4.27;2.73;;;;;;;;;;5077131;28;20518;-71
2023/05/12 15:03:48;;;;;;;6.17;2.90;;;;;;;;;;5076173;28;20484;-71
2023/05/12 15:06:19;;;;;;;7.77;3.40;;;;;;;;;;5073750;28;20441;-71
2023/05/12 15:08:47;;;;;;;3.43;2.47;;;;;;;;;;5074020;28;20534;-70
2023/05/12 15:11:15;;;;;;;4.57;1.93;;;;;;;;;;5073388;28;20480;-71
2023/05/12 15:13:43;;;;;;;5.73;2.90;;;;;;;;;;5089369;28;20474;-70
2023/05/12 15:16:11;;;;;;;3.50;2.67;;;;;;;;;;5092621;28;20892;-71
2023/05/12 15:18:40;;;;;;;3.60;2.67;;;;;;;;;;5094955;28;20457;-70
2023/05/12 15:21:09;;;;;;;5.27;2.70;;;;;;;;;;5098650;28;20460;-71
2023/05/12 15:23:42;;;;;;;4.30;3.10;;;;;;;;;;5097034;28;20810;-71
2023/05/12 15:26:16;;;;;;;3.83;2.83;;;;;;;;;;5095966;28;20451;-71
2023/05/12 15:31:41;;;;;;;5.90;2.33;;;;;;;;;;5095074;28;20722;-70
2023/05/12 15:34:10;;;;;;;3.70;2.53;;;;;;;;;;5092246;28;20463;-69
2023/05/12 15:36:39;;;;;;;8.93;2.83;;;;;;;;;;5094320;28;20488;-71
2023/05/12 15:39:07;;;;;;;4.80;2.60;;;;;;;;;;5094837;28;20464;-71
2023/05/12 15:41:35;;;;;;;5.77;3.07;;;;;;;;;;5093326;28;20568;-70